sensor_id;sensor_type;location;lat;lon;timestamp;pressure;altitude;pressure_sealevel;temperature;humidity
57628;BME280;43451;49.060;10.616;2023-05-23T00:00:24;96433.50;;;15.28;100.00
57628;BME280;43451;49.060;10.616;2023-05-23T00:02:50;96430.28;;;15.33;100.00
57628;BME280;43451;49.060;10.616;2023-05-23T00:05:15;96427.53;;;15.33;100.00
57628;BME280;43451;49.060;10.616;2023-05-23T00:07:43;96429.25;;;15.27;100.00
57628;BME280;43451;49.060;10.616;2023-05-23T00:10:09;96427.03;;;15.39;100.00
57628;BME280;43451;49.060;10.616;2023-05-23T00:12:35;96428.19;;;15.38;100.00
57628;BME280;43451;49.060;10.616;2023-05-23T00:15:04;96427.25;;;15.44;100.00
57628;BME280;43451;49.060;10.616;2023-05-23T00:17:32;96429.56;;;15.46;100.00
57628;BME280;43451;49.060;10.616;2023-05-23T00:19:57;96429.13;;;15.64;100.00
57628;BME280;43451;49.060;10.616;2023-05-23T00:22:23;96424.03;;;15.78;100.00
57628;BME280;43451;49.060;10.616;2023-05-23T00:24:48;96415.47;;;16.06;100.00
57628;BME280;43451;49.060;10.616;2023-05-23T00:27:14;96418.25;;;16.18;100.00
57628;BME280;43451;49.060;10.616;2023-05-23T00:29:39;96412.31;;;16.33;100.00
57628;BME280;43451;49.060;10.616;2023-05-23T00:32:05;96416.06;;;16.39;100.00
57628;BME280;43451;49.060;10.616;2023-05-23T00:34:31;96417.81;;;16.58;100.00
57628;BME280;43451;49.060;10.616;2023-05-23T00:36:56;96410.16;;;16.66;100.00
57628;BME280;43451;49.060;10.616;2023-05-23T00:39:22;96418.50;;;16.62;100.00
57628;BME280;43451;49.060;10.616;2023-05-23T00:41:49;96420.91;;;16.60;100.00
57628;BME280;43451;49.060;10.616;2023-05-23T00:44:15;96417.41;;;16.60;100.00
57628;BME280;43451;49.060;10.616;2023-05-23T00:46:42;96419.81;;;16.70;100.00
57628;BME280;43451;49.060;10.616;2023-05-23T00:49:10;96416.75;;;16.68;100.00
57628;BME280;43451;49.060;10.616;2023-05-23T00:51:37;96416.53;;;16.50;100.00
57628;BME280;43451;49.060;10.616;2023-05-23T00:54:03;96420.88;;;16.35;100.00
57628;BME280;43451;49.060;10.616;2023-05-23T00:56:30;96428.78;;;16.33;100.00
57628;BME280;43451;49.060;10.616;2023-05-23T00:58:57;96431.09;;;16.47;100.00
57628;BME280;43451;49.060;10.616;2023-05-23T01:01:24;96427.00;;;16.26;100.00
57628;BME280;43451;49.060;10.616;2023-05-23T01:03:50;96426.78;;;16.20;100.00
57628;BME280;43451;49.060;10.616;2023-05-23T01:06:15;96436.88;;;16.23;100.00
57628;BME280;43451;49.060;10.616;2023-05-23T01:08:41;96430.06;;;16.15;100.00
57628;BME280;43451;49.060;10.616;2023-05-23T01:11:22;96435.88;;;16.17;100.00
57628;BME280;43451;49.060;10.616;2023-05-23T01:14:00;96434.25;;;16.33;100.00
57628;BME280;43451;49.060;10.616;2023-05-23T01:16:29;96440.69;;;16.13;100.00
57628;BME280;43451;49.060;10.616;2023-05-23T01:21:44;96447.59;;;16.05;100.00
57628;BME280;43451;49.060;10.616;2023-05-23T01:24:21;96451.38;;;15.95;100.00
57628;BME280;43451;49.060;10.616;2023-05-23T01:29:59;96437.19;;;16.13;100.00
57628;BME280;43451;49.060;10.616;2023-05-23T01:32:27;96440.47;;;15.78;100.00
57628;BME280;43451;49.060;10.616;2023-05-23T01:34:53;96442.56;;;15.58;100.00
57628;BME280;43451;49.060;10.616;2023-05-23T01:37:19;96446.84;;;15.43;100.00
57628;BME280;43451;49.060;10.616;2023-05-23T01:39:46;96443.16;;;15.49;100.00
57628;BME280;43451;49.060;10.616;2023-05-23T01:42:12;96436.75;;;15.40;100.00
57628;BME280;43451;49.060;10.616;2023-05-23T01:44:38;96440.19;;;15.27;100.00
57628;BME280;43451;49.060;10.616;2023-05-23T01:47:07;96443.22;;;15.17;100.00
57628;BME280;43451;49.060;10.616;2023-05-23T01:49:35;96449.28;;;15.08;100.00
57628;BME280;43451;49.060;10.616;2023-05-23T01:52:01;96450.47;;;15.07;100.00
57628;BME280;43451;49.060;10.616;2023-05-23T01:54:28;96453.44;;;14.96;100.00
57628;BME280;43451;49.060;10.616;2023-05-23T01:56:58;96449.34;;;14.88;100.00
57628;BME280;43451;49.060;10.616;2023-05-23T01:59:24;96442.84;;;14.82;100.00
57628;BME280;43451;49.060;10.616;2023-05-23T02:01:51;96444.31;;;14.86;100.00
57628;BME280;43451;49.060;10.616;2023-05-23T02:04:17;96453.88;;;14.78;100.00
57628;BME280;43451;49.060;10.616;2023-05-23T02:06:43;96450.03;;;14.76;100.00
57628;BME280;43451;49.060;10.616;2023-05-23T02:09:08;96456.00;;;14.71;100.00
57628;BME280;43451;49.060;10.616;2023-05-23T02:11:35;96454.34;;;14.57;100.00
57628;BME280;43451;49.060;10.616;2023-05-23T02:14:00;96455.31;;;14.47;100.00
57628;BME280;43451;49.060;10.616;2023-05-23T02:16:26;96456.31;;;14.36;100.00
57628;BME280;43451;49.060;10.616;2023-05-23T02:18:52;96460.03;;;14.26;100.00
57628;BME280;43451;49.060;10.616;2023-05-23T02:21:23;96448.34;;;14.26;100.00
57628;BME280;43451;49.060;10.616;2023-05-23T02:23:48;96456.69;;;14.19;100.00
57628;BME280;43451;49.060;10.616;2023-05-23T02:26:14;96465.22;;;14.21;100.00
57628;BME280;43451;49.060;10.616;2023-05-23T02:28:40;96461.03;;;14.16;100.00
57628;BME280;43451;49.060;10.616;2023-05-23T02:31:06;96465.72;;;14.15;100.00
57628;BME280;43451;49.060;10.616;2023-05-23T02:33:31;96462.06;;;14.22;100.00
57628;BME280;43451;49.060;10.616;2023-05-23T02:35:57;96465.28;;;14.17;100.00
57628;BME280;43451;49.060;10.616;2023-05-23T02:38:22;96460.34;;;14.12;100.00
57628;BME280;43451;49.060;10.616;2023-05-23T02:40:48;96460.47;;;14.05;100.00
57628;BME280;43451;49.060;10.616;2023-05-23T02:43:15;96455.34;;;14.07;100.00
57628;BME280;43451;49.060;10.616;2023-05-23T02:45:41;96445.69;;;14.02;100.00
57628;BME280;43451;49.060;10.616;2023-05-23T02:48:06;96459.75;;;14.01;100.00
57628;BME280;43451;49.060;10.616;2023-05-23T02:50:32;96464.31;;;14.07;100.00
57628;BME280;43451;49.060;10.616;2023-05-23T02:52:58;96462.72;;;13.90;100.00
57628;BME280;43451;49.060;10.616;2023-05-23T02:55:23;96463.56;;;13.87;100.00
57628;BME280;43451;49.060;10.616;2023-05-23T02:57:48;96458.22;;;13.80;100.00
57628;BME280;43451;49.060;10.616;2023-05-23T03:00:15;96459.84;;;13.77;100.00
57628;BME280;43451;49.060;10.616;2023-05-23T03:02:41;96461.16;;;13.69;100.00
57628;BME280;43451;49.060;10.616;2023-05-23T03:05:07;96459.63;;;13.68;100.00
57628;BME280;43451;49.060;10.616;2023-05-23T03:07:33;96469.84;;;13.84;100.00
57628;BME280;43451;49.060;10.616;2023-05-23T03:09:59;96467.53;;;13.82;100.00
57628;BME280;43451;49.060;10.616;2023-05-23T03:12:29;96462.50;;;13.81;100.00
57628;BME280;43451;49.060;10.616;2023-05-23T03:14:54;96462.19;;;13.75;100.00
57628;BME280;43451;49.060;10.616;2023-05-23T03:19:49;96465.53;;;13.86;100.00
57628;BME280;43451;49.060;10.616;2023-05-23T03:22:14;96474.03;;;13.88;100.00
57628;BME280;43451;49.060;10.616;2023-05-23T03:24:41;96477.91;;;14.11;100.00
57628;BME280;43451;49.060;10.616;2023-05-23T03:27:09;96474.63;;;14.20;100.00
57628;BME280;43451;49.060;10.616;2023-05-23T03:29:35;96474.63;;;14.20;100.00
57628;BME280;43451;49.060;10.616;2023-05-23T03:32:11;96487.16;;;14.17;100.00
57628;BME280;43451;49.060;10.616;2023-05-23T03:34:43;96485.00;;;14.28;100.00
57628;BME280;43451;49.060;10.616;2023-05-23T03:37:12;96487.56;;;14.35;100.00
57628;BME280;43451;49.060;10.616;2023-05-23T03:39:39;96482.66;;;14.47;100.00
57628;BME280;43451;49.060;10.616;2023-05-23T03:42:06;96487.50;;;14.59;100.00
57628;BME280;43451;49.060;10.616;2023-05-23T03:44:31;96485.38;;;14.67;100.00
57628;BME280;43451;49.060;10.616;2023-05-23T03:46:58;96487.53;;;14.75;100.00
57628;BME280;43451;49.060;10.616;2023-05-23T03:49:26;96481.63;;;14.77;100.00
57628;BME280;43451;49.060;10.616;2023-05-23T03:51:52;96485.84;;;14.81;100.00
57628;BME280;43451;49.060;10.616;2023-05-23T03:54:25;96494.94;;;14.95;100.00
57628;BME280;43451;49.060;10.616;2023-05-23T03:56:50;96499.72;;;15.07;100.00
57628;BME280;43451;49.060;10.616;2023-05-23T03:59:21;96497.41;;;15.22;100.00
57628;BME280;43451;49.060;10.616;2023-05-23T04:01:51;96499.97;;;15.13;100.00
57628;BME280;43451;49.060;10.616;2023-05-23T04:04:17;96500.31;;;15.15;100.00
57628;BME280;43451;49.060;10.616;2023-05-23T04:06:49;96494.16;;;15.27;100.00
57628;BME280;43451;49.060;10.616;2023-05-23T04:09:21;96484.94;;;15.21;100.00
57628;BME280;43451;49.060;10.616;2023-05-23T04:11:47;96494.00;;;15.34;100.00
57628;BME280;43451;49.060;10.616;2023-05-23T04:14:32;96490.59;;;15.30;100.00
57628;BME280;43451;49.060;10.616;2023-05-23T04:16:58;96490.50;;;15.33;100.00
57628;BME280;43451;49.060;10.616;2023-05-23T04:19:34;96493.91;;;15.38;100.00
57628;BME280;43451;49.060;10.616;2023-05-23T04:21:59;96492.03;;;15.35;100.00
57628;BME280;43451;49.060;10.616;2023-05-23T04:24:48;96498.53;;;15.41;100.00
57628;BME280;43451;49.060;10.616;2023-05-23T04:27:14;96502.47;;;15.40;100.00
57628;BME280;43451;49.060;10.616;2023-05-23T04:29:40;96507.94;;;15.40;100.00
57628;BME280;43451;49.060;10.616;2023-05-23T04:32:05;96509.38;;;15.44;100.00
57628;BME280;43451;49.060;10.616;2023-05-23T04:34:33;96506.22;;;15.46;100.00
57628;BME280;43451;49.060;10.616;2023-05-23T04:37:06;96510.84;;;15.49;100.00
57628;BME280;43451;49.060;10.616;2023-05-23T04:39:33;96510.75;;;15.52;100.00
57628;BME280;43451;49.060;10.616;2023-05-23T04:42:15;96515.03;;;15.53;100.00
57628;BME280;43451;49.060;10.616;2023-05-23T04:44:47;96526.50;;;15.48;100.00
57628;BME280;43451;49.060;10.616;2023-05-23T04:47:16;96531.72;;;15.59;100.00
57628;BME280;43451;49.060;10.616;2023-05-23T04:49:43;96524.81;;;15.54;100.00
57628;BME280;43451;49.060;10.616;2023-05-23T04:52:09;96531.81;;;15.55;100.00
57628;BME280;43451;49.060;10.616;2023-05-23T04:54:34;96532.47;;;15.60;100.00
57628;BME280;43451;49.060;10.616;2023-05-23T04:57:03;96533.94;;;15.64;100.00
57628;BME280;43451;49.060;10.616;2023-05-23T04:59:29;96531.50;;;15.70;100.00
57628;BME280;43451;49.060;10.616;2023-05-23T05:01:54;96533.78;;;15.71;100.00
57628;BME280;43451;49.060;10.616;2023-05-23T05:04:19;96532.44;;;15.80;100.00
57628;BME280;43451;49.060;10.616;2023-05-23T05:06:56;96532.50;;;15.92;100.00
57628;BME280;43451;49.060;10.616;2023-05-23T05:09:38;96535.66;;;15.91;100.00
57628;BME280;43451;49.060;10.616;2023-05-23T05:12:03;96541.13;;;15.91;100.00
57628;BME280;43451;49.060;10.616;2023-05-23T05:14:33;96540.25;;;15.94;100.00
57628;BME280;43451;49.060;10.616;2023-05-23T05:17:00;96543.56;;;16.01;100.00
57628;BME280;43451;49.060;10.616;2023-05-23T05:19:28;96545.59;;;16.14;100.00
57628;BME280;43451;49.060;10.616;2023-05-23T05:21:56;96549.31;;;16.07;100.00
57628;BME280;43451;49.060;10.616;2023-05-23T05:24:27;96545.47;;;16.05;100.00
57628;BME280;43451;49.060;10.616;2023-05-23T05:26:54;96546.72;;;16.16;100.00
57628;BME280;43451;49.060;10.616;2023-05-23T05:29:20;96548.94;;;16.21;100.00
57628;BME280;43451;49.060;10.616;2023-05-23T05:32:04;96551.84;;;16.31;100.00
57628;BME280;43451;49.060;10.616;2023-05-23T05:34:35;96546.50;;;16.40;100.00
57628;BME280;43451;49.060;10.616;2023-05-23T05:37:04;96538.03;;;16.34;100.00
57628;BME280;43451;49.060;10.616;2023-05-23T05:39:34;96554.22;;;16.29;100.00
57628;BME280;43451;49.060;10.616;2023-05-23T05:45:01;96547.53;;;16.30;100.00
57628;BME280;43451;49.060;10.616;2023-05-23T05:47:27;96549.59;;;16.25;100.00
57628;BME280;43451;49.060;10.616;2023-05-23T05:49:52;96547.88;;;16.32;100.00
57628;BME280;43451;49.060;10.616;2023-05-23T05:52:25;96544.88;;;16.26;100.00
57628;BME280;43451;49.060;10.616;2023-05-23T05:54:50;96545.59;;;16.30;100.00
57628;BME280;43451;49.060;10.616;2023-05-23T05:57:20;96550.88;;;16.37;100.00
57628;BME280;43451;49.060;10.616;2023-05-23T05:59:45;96554.19;;;16.58;100.00
57628;BME280;43451;49.060;10.616;2023-05-23T06:02:12;96550.56;;;16.48;100.00
57628;BME280;43451;49.060;10.616;2023-05-23T06:04:50;96548.16;;;16.50;100.00
57628;BME280;43451;49.060;10.616;2023-05-23T06:07:16;96551.69;;;16.63;100.00
57628;BME280;43451;49.060;10.616;2023-05-23T06:09:41;96556.31;;;16.66;100.00
57628;BME280;43451;49.060;10.616;2023-05-23T06:12:24;96549.78;;;16.77;100.00
57628;BME280;43451;49.060;10.616;2023-05-23T06:14:58;96559.53;;;16.78;100.00
57628;BME280;43451;49.060;10.616;2023-05-23T06:17:24;96551.78;;;16.89;100.00
57628;BME280;43451;49.060;10.616;2023-05-23T06:19:52;96548.16;;;17.05;100.00
57628;BME280;43451;49.060;10.616;2023-05-23T06:22:20;96549.03;;;17.14;100.00
57628;BME280;43451;49.060;10.616;2023-05-23T06:24:50;96560.16;;;17.24;100.00
57628;BME280;43451;49.060;10.616;2023-05-23T06:27:17;96552.56;;;17.28;100.00
57628;BME280;43451;49.060;10.616;2023-05-23T06:29:53;96553.88;;;17.36;100.00
57628;BME280;43451;49.060;10.616;2023-05-23T06:32:32;96560.47;;;17.51;100.00
57628;BME280;43451;49.060;10.616;2023-05-23T06:35:19;96559.47;;;17.45;100.00
57628;BME280;43451;49.060;10.616;2023-05-23T06:37:47;96567.25;;;17.47;100.00
57628;BME280;43451;49.060;10.616;2023-05-23T06:40:12;96563.84;;;17.55;100.00
57628;BME280;43451;49.060;10.616;2023-05-23T06:42:42;96568.91;;;17.57;100.00
57628;BME280;43451;49.060;10.616;2023-05-23T06:45:21;96568.13;;;17.56;100.00
57628;BME280;43451;49.060;10.616;2023-05-23T06:47:50;96568.81;;;17.60;100.00
57628;BME280;43451;49.060;10.616;2023-05-23T06:50:23;96569.13;;;17.62;100.00
57628;BME280;43451;49.060;10.616;2023-05-23T06:52:53;96571.31;;;17.68;100.00
57628;BME280;43451;49.060;10.616;2023-05-23T06:58:10;96584.19;;;17.83;100.00
57628;BME280;43451;49.060;10.616;2023-05-23T07:00:43;96590.88;;;17.95;100.00
57628;BME280;43451;49.060;10.616;2023-05-23T07:03:08;96577.13;;;17.95;100.00
57628;BME280;43451;49.060;10.616;2023-05-23T07:05:38;96588.84;;;18.08;100.00
57628;BME280;43451;49.060;10.616;2023-05-23T07:08:03;96591.41;;;18.03;100.00
57628;BME280;43451;49.060;10.616;2023-05-23T07:10:39;96592.66;;;17.89;100.00
57628;BME280;43451;49.060;10.616;2023-05-23T07:13:07;96592.53;;;17.93;100.00
57628;BME280;43451;49.060;10.616;2023-05-23T07:15:35;96599.31;;;17.75;100.00
57628;BME280;43451;49.060;10.616;2023-05-23T07:18:04;96598.69;;;17.71;100.00
57628;BME280;43451;49.060;10.616;2023-05-23T07:20:36;96599.13;;;17.70;100.00
57628;BME280;43451;49.060;10.616;2023-05-23T07:23:02;96603.66;;;17.63;100.00
57628;BME280;43451;49.060;10.616;2023-05-23T07:25:28;96598.69;;;17.71;100.00
57628;BME280;43451;49.060;10.616;2023-05-23T07:27:58;96597.28;;;17.67;100.00
57628;BME280;43451;49.060;10.616;2023-05-23T07:30:28;96605.81;;;17.69;100.00
57628;BME280;43451;49.060;10.616;2023-05-23T07:32:56;96597.03;;;17.74;100.00
57628;BME280;43451;49.060;10.616;2023-05-23T07:35:22;96604.94;;;17.72;100.00
57628;BME280;43451;49.060;10.616;2023-05-23T07:37:52;96602.84;;;17.63;100.00
57628;BME280;43451;49.060;10.616;2023-05-23T07:40:18;96601.31;;;17.62;100.00
57628;BME280;43451;49.060;10.616;2023-05-23T07:42:43;96601.31;;;17.62;100.00
57628;BME280;43451;49.060;10.616;2023-05-23T07:45:10;96618.16;;;17.64;100.00
57628;BME280;43451;49.060;10.616;2023-05-23T07:47:37;96606.28;;;17.67;100.00
57628;BME280;43451;49.060;10.616;2023-05-23T07:50:03;96610.91;;;17.70;100.00
57628;BME280;43451;49.060;10.616;2023-05-23T07:52:29;96610.66;;;17.64;100.00
57628;BME280;43451;49.060;10.616;2023-05-23T07:54:56;96621.66;;;17.64;100.00
57628;BME280;43451;49.060;10.616;2023-05-23T07:57:22;96624.84;;;17.63;100.00
57628;BME280;43451;49.060;10.616;2023-05-23T07:59:49;96621.78;;;17.61;100.00
57628;BME280;43451;49.060;10.616;2023-05-23T08:02:14;96615.28;;;17.68;100.00
57628;BME280;43451;49.060;10.616;2023-05-23T08:04:39;96622.97;;;17.73;100.00
57628;BME280;43451;49.060;10.616;2023-05-23T08:07:06;96627.56;;;17.76;100.00
57628;BME280;43451;49.060;10.616;2023-05-23T08:09:34;96625.81;;;17.69;100.00
57628;BME280;43451;49.060;10.616;2023-05-23T08:12:02;96640.34;;;17.70;100.00
57628;BME280;43451;49.060;10.616;2023-05-23T08:14:27;96637.81;;;17.62;100.00
57628;BME280;43451;49.060;10.616;2023-05-23T08:16:53;96635.06;;;17.50;100.00
57628;BME280;43451;49.060;10.616;2023-05-23T08:19:18;96642.41;;;17.40;100.00
57628;BME280;43451;49.060;10.616;2023-05-23T08:21:44;96640.22;;;17.35;100.00
57628;BME280;43451;49.060;10.616;2023-05-23T08:24:12;96641.16;;;17.15;100.00
57628;BME280;43451;49.060;10.616;2023-05-23T08:26:49;96652.94;;;17.16;100.00
57628;BME280;43451;49.060;10.616;2023-05-23T08:29:15;96640.72;;;17.04;100.00
57628;BME280;43451;49.060;10.616;2023-05-23T08:31:43;96647.78;;;17.18;100.00
57628;BME280;43451;49.060;10.616;2023-05-23T08:34:09;96648.00;;;17.24;100.00
57628;BME280;43451;49.060;10.616;2023-05-23T08:36:52;96661.75;;;17.24;100.00
57628;BME280;43451;49.060;10.616;2023-05-23T08:39:17;96641.41;;;17.34;100.00
57628;BME280;43451;49.060;10.616;2023-05-23T08:41:44;96650.66;;;17.40;98.49
57628;BME280;43451;49.060;10.616;2023-05-23T08:44:09;96640.03;;;17.55;99.83
57628;BME280;43451;49.060;10.616;2023-05-23T08:46:43;96641.78;;;17.87;100.00
57628;BME280;43451;49.060;10.616;2023-05-23T08:49:12;96635.75;;;17.92;100.00
57628;BME280;43451;49.060;10.616;2023-05-23T08:51:42;96629.06;;;18.28;96.21
57628;BME280;43451;49.060;10.616;2023-05-23T08:54:12;96634.97;;;18.61;96.25
57628;BME280;43451;49.060;10.616;2023-05-23T08:56:39;96643.53;;;18.76;96.63
57628;BME280;43451;49.060;10.616;2023-05-23T08:59:21;96640.84;;;18.85;93.10
57628;BME280;43451;49.060;10.616;2023-05-23T09:01:49;96643.34;;;18.92;96.46
57628;BME280;43451;49.060;10.616;2023-05-23T09:04:20;96646.28;;;18.98;90.91
57628;BME280;43451;49.060;10.616;2023-05-23T09:06:47;96650.34;;;19.06;92.80
57628;BME280;43451;49.060;10.616;2023-05-23T09:09:25;96658.06;;;18.98;92.65
57628;BME280;43451;49.060;10.616;2023-05-23T09:12:15;96656.16;;;18.86;94.34
57628;BME280;43451;49.060;10.616;2023-05-23T09:14:41;96674.72;;;18.60;98.63
57628;BME280;43451;49.060;10.616;2023-05-23T09:17:15;96663.56;;;18.42;98.17
57628;BME280;43451;49.060;10.616;2023-05-23T09:19:42;96668.19;;;18.32;95.56
57628;BME280;43451;49.060;10.616;2023-05-23T09:22:08;96669.25;;;18.13;93.10
57628;BME280;43451;49.060;10.616;2023-05-23T09:24:34;96670.13;;;17.97;94.19
57628;BME280;43451;49.060;10.616;2023-05-23T09:27:01;96671.66;;;17.98;98.00
57628;BME280;43451;49.060;10.616;2023-05-23T09:29:29;96670.66;;;18.04;99.25
57628;BME280;43451;49.060;10.616;2023-05-23T09:32:16;96656.13;;;18.17;100.00
57628;BME280;43451;49.060;10.616;2023-05-23T09:34:57;96657.50;;;18.47;98.28
57628;BME280;43451;49.060;10.616;2023-05-23T09:39:59;96661.28;;;18.75;90.77
57628;BME280;43451;49.060;10.616;2023-05-23T09:42:31;96667.88;;;18.77;89.47
57628;BME280;43451;49.060;10.616;2023-05-23T09:44:58;96662.81;;;18.76;88.13
57628;BME280;43451;49.060;10.616;2023-05-23T09:47:23;96668.78;;;18.62;89.52
57628;BME280;43451;49.060;10.616;2023-05-23T09:49:49;96671.34;;;18.56;86.69
57628;BME280;43451;49.060;10.616;2023-05-23T09:52:15;96677.47;;;18.60;85.50
57628;BME280;43451;49.060;10.616;2023-05-23T09:54:42;96675.28;;;18.55;88.47
57628;BME280;43451;49.060;10.616;2023-05-23T09:57:09;96675.81;;;18.63;88.59
57628;BME280;43451;49.060;10.616;2023-05-23T09:59:39;96677.06;;;18.62;84.65
57628;BME280;43451;49.060;10.616;2023-05-23T10:02:15;96677.34;;;18.64;82.09
57628;BME280;43451;49.060;10.616;2023-05-23T10:04:41;96691.97;;;18.73;85.24
57628;BME280;43451;49.060;10.616;2023-05-23T10:07:17;96687.25;;;18.74;80.82
57628;BME280;43451;49.060;10.616;2023-05-23T10:09:52;96691.91;;;18.51;79.01
57628;BME280;43451;49.060;10.616;2023-05-23T10:15:02;96701.09;;;18.36;82.76
57628;BME280;43451;49.060;10.616;2023-05-23T10:17:56;96712.44;;;18.25;83.44
57628;BME280;43451;49.060;10.616;2023-05-23T10:20:29;96698.38;;;18.23;84.76
57628;BME280;43451;49.060;10.616;2023-05-23T10:22:59;96701.34;;;18.28;86.13
57628;BME280;43451;49.060;10.616;2023-05-23T10:25:25;96716.81;;;18.35;84.37
57628;BME280;43451;49.060;10.616;2023-05-23T10:27:54;96704.31;;;18.34;84.78
57628;BME280;43451;49.060;10.616;2023-05-23T10:30:26;96713.53;;;18.40;80.68
57628;BME280;43451;49.060;10.616;2023-05-23T10:32:53;96729.84;;;18.22;80.64
57628;BME280;43451;49.060;10.616;2023-05-23T10:35:28;96721.16;;;18.10;84.26
57628;BME280;43451;49.060;10.616;2023-05-23T10:43:21;96719.28;;;18.07;80.75
57628;BME280;43451;49.060;10.616;2023-05-23T10:45:49;96725.56;;;18.08;81.49
57628;BME280;43451;49.060;10.616;2023-05-23T10:48:20;96738.22;;;18.05;80.48
57628;BME280;43451;49.060;10.616;2023-05-23T10:51:10;96726.44;;;18.30;81.80
57628;BME280;43451;49.060;10.616;2023-05-23T10:53:45;96737.97;;;18.13;77.72
57628;BME280;43451;49.060;10.616;2023-05-23T10:56:22;96730.84;;;18.02;76.78
57628;BME280;43451;49.060;10.616;2023-05-23T10:58:53;96738.53;;;17.95;78.01
57628;BME280;43451;49.060;10.616;2023-05-23T11:01:19;96743.13;;;17.85;80.67
57628;BME280;43451;49.060;10.616;2023-05-23T11:06:31;96748.81;;;17.65;80.79
57628;BME280;43451;49.060;10.616;2023-05-23T11:09:18;96746.41;;;17.67;81.68
57628;BME280;43451;49.060;10.616;2023-05-23T11:14:30;96748.91;;;17.49;85.12
57628;BME280;43451;49.060;10.616;2023-05-23T11:16:56;96761.09;;;17.48;82.14
57628;BME280;43451;49.060;10.616;2023-05-23T11:19:24;96752.72;;;17.38;84.43
57628;BME280;43451;49.060;10.616;2023-05-23T11:22:00;96755.69;;;17.44;84.39
57628;BME280;43451;49.060;10.616;2023-05-23T11:24:52;96750.56;;;17.59;84.16
57628;BME280;43451;49.060;10.616;2023-05-23T11:27:35;96738.06;;;17.71;81.11
57628;BME280;43451;49.060;10.616;2023-05-23T11:30:10;96738.56;;;17.53;79.46
57628;BME280;43451;49.060;10.616;2023-05-23T11:32:40;96733.53;;;17.64;83.84
57628;BME280;43451;49.060;10.616;2023-05-23T11:35:07;96736.19;;;17.68;80.98
57628;BME280;43451;49.060;10.616;2023-05-23T11:37:34;96726.44;;;17.79;86.71
57628;BME280;43451;49.060;10.616;2023-05-23T11:40:30;96717.53;;;17.88;83.57
57628;BME280;43451;49.060;10.616;2023-05-23T11:42:57;96720.84;;;18.08;82.02
57628;BME280;43451;49.060;10.616;2023-05-23T11:45:23;96718.50;;;18.20;82.22
57628;BME280;43451;49.060;10.616;2023-05-23T11:47:49;96709.47;;;18.32;79.88
57628;BME280;43451;49.060;10.616;2023-05-23T11:50:16;96714.19;;;18.44;82.08
57628;BME280;43451;49.060;10.616;2023-05-23T11:52:42;96707.97;;;18.66;75.89
57628;BME280;43451;49.060;10.616;2023-05-23T11:55:08;96708.25;;;18.81;78.05
57628;BME280;43451;49.060;10.616;2023-05-23T11:57:37;96710.91;;;18.84;77.49
57628;BME280;43451;49.060;10.616;2023-05-23T12:00:06;96703.34;;;18.97;79.08
57628;BME280;43451;49.060;10.616;2023-05-23T12:02:43;96709.16;;;18.99;77.78
57628;BME280;43451;49.060;10.616;2023-05-23T12:05:11;96707.13;;;19.13;73.29
57628;BME280;43451;49.060;10.616;2023-05-23T12:07:48;96698.28;;;19.18;75.21
57628;BME280;43451;49.060;10.616;2023-05-23T12:10:15;96706.81;;;19.11;74.31
57628;BME280;43451;49.060;10.616;2023-05-23T12:12:46;96696.94;;;19.00;75.65
57628;BME280;43451;49.060;10.616;2023-05-23T12:15:12;96702.88;;;18.99;73.22
57628;BME280;43451;49.060;10.616;2023-05-23T12:17:38;96709.69;;;18.85;72.76
57628;BME280;43451;49.060;10.616;2023-05-23T12:20:10;96695.06;;;18.75;73.33
57628;BME280;43451;49.060;10.616;2023-05-23T12:22:35;96703.66;;;18.77;74.22
57628;BME280;43451;49.060;10.616;2023-05-23T12:25:01;96686.50;;;18.95;75.51
57628;BME280;43451;49.060;10.616;2023-05-23T12:27:30;96692.53;;;19.03;72.28
57628;BME280;43451;49.060;10.616;2023-05-23T12:30:15;96690.56;;;19.04;70.93
57628;BME280;43451;49.060;10.616;2023-05-23T12:32:42;96690.34;;;18.98;69.26
57628;BME280;43451;49.060;10.616;2023-05-23T12:35:10;96698.88;;;18.91;71.64
57628;BME280;43451;49.060;10.616;2023-05-23T12:37:40;96691.69;;;18.93;71.16
57628;BME280;43451;49.060;10.616;2023-05-23T12:40:13;96690.16;;;18.92;69.28
57628;BME280;43451;49.060;10.616;2023-05-23T12:42:53;96684.34;;;18.90;67.54
57628;BME280;43451;49.060;10.616;2023-05-23T12:45:20;96684.06;;;18.75;69.27
57628;BME280;43451;49.060;10.616;2023-05-23T12:47:46;96695.53;;;18.61;71.25
57628;BME280;43451;49.060;10.616;2023-05-23T12:50:13;96692.22;;;18.66;69.49
57628;BME280;43451;49.060;10.616;2023-05-23T12:52:38;96695.41;;;18.65;70.46
57628;BME280;43451;49.060;10.616;2023-05-23T12:55:05;96702.81;;;18.55;72.05
57628;BME280;43451;49.060;10.616;2023-05-23T12:57:33;96705.03;;;18.47;73.68
57628;BME280;43451;49.060;10.616;2023-05-23T12:59:58;96704.91;;;18.51;76.53
57628;BME280;43451;49.060;10.616;2023-05-23T13:02:24;96711.63;;;18.50;75.83
57628;BME280;43451;49.060;10.616;2023-05-23T13:04:49;96703.81;;;18.48;74.06
57628;BME280;43451;49.060;10.616;2023-05-23T13:07:15;96704.38;;;18.43;78.71
57628;BME280;43451;49.060;10.616;2023-05-23T13:09:41;96707.22;;;18.52;73.21
57628;BME280;43451;49.060;10.616;2023-05-23T13:12:07;96707.09;;;18.56;74.09
57628;BME280;43451;49.060;10.616;2023-05-23T13:14:33;96715.56;;;18.74;71.89
57628;BME280;43451;49.060;10.616;2023-05-23T13:16:59;96716.97;;;18.66;72.33
57628;BME280;43451;49.060;10.616;2023-05-23T13:19:24;96720.75;;;18.60;71.25
57628;BME280;43451;49.060;10.616;2023-05-23T13:21:50;96722.91;;;18.65;74.25